createdAt,value
2019-02-07T00:00:47.036Z,32.38
2019-02-07T00:03:15.929Z,31.17
2019-02-07T00:05:45.143Z,36.58
2019-02-07T00:08:14.372Z,36.50
2019-02-07T00:10:43.864Z,29.00
2019-02-07T00:13:12.855Z,33.33
2019-02-07T00:15:41.743Z,33.65
2019-02-07T00:18:10.659Z,31.07
2019-02-07T00:20:39.823Z,39.78
2019-02-07T00:23:09.129Z,28.40
2019-02-07T00:25:38.226Z,30.27
2019-02-07T00:28:08.207Z,37.08
2019-02-07T00:30:37.182Z,34.18
2019-02-07T00:33:06.115Z,38.53
2019-02-07T00:35:35.065Z,31.87
2019-02-07T00:38:04.188Z,30.90
2019-02-07T00:40:34.316Z,44.95
2019-02-07T00:43:03.782Z,44.80
2019-02-07T00:45:32.636Z,46.73
2019-02-07T00:48:01.594Z,50.17
2019-02-07T00:50:31.151Z,29.82
2019-02-07T00:53:00.215Z,37.88
2019-02-07T00:55:29.818Z,32.75
2019-02-07T00:57:58.745Z,32.42
2019-02-07T01:00:27.784Z,47.85
2019-02-07T01:02:56.978Z,46.13
2019-02-07T01:05:25.990Z,36.68
2019-02-07T01:07:54.879Z,33.10
2019-02-07T01:10:25.135Z,37.60
2019-02-07T01:12:54.009Z,35.83
2019-02-07T01:15:23.964Z,35.63
2019-02-07T01:17:53.011Z,38.00
2019-02-07T01:20:22.105Z,52.40
2019-02-07T01:22:51.326Z,36.17
2019-02-07T01:25:21.238Z,48.90
2019-02-07T01:27:50.308Z,38.45
2019-02-07T01:30:20.907Z,36.93
2019-02-07T01:32:50.769Z,37.75
2019-02-07T01:35:20.871Z,59.48
2019-02-07T01:37:50.397Z,40.73
2019-02-07T01:40:19.987Z,31.20
2019-02-07T01:42:49.082Z,34.60
2019-02-07T01:45:19.949Z,38.98
2019-02-07T01:47:49.214Z,41.88
2019-02-07T01:50:20.436Z,38.50
2019-02-07T01:52:49.809Z,43.08
2019-02-07T01:55:18.962Z,45.10
2019-02-07T01:57:47.979Z,35.28
2019-02-07T02:00:18.088Z,38.60
2019-02-07T02:02:47.574Z,39.90
2019-02-07T02:05:17.798Z,32.03
2019-02-07T02:07:47.776Z,38.25
2019-02-07T02:10:19.031Z,39.05
2019-02-07T02:12:48.201Z,29.32
2019-02-07T02:15:24.625Z,35.68
2019-02-07T02:17:51.687Z,38.95
2019-02-07T02:20:21.765Z,33.63
2019-02-07T02:22:51.521Z,36.10
2019-02-07T02:25:23.060Z,41.15
2019-02-07T02:27:52.901Z,35.65
2019-02-07T02:30:27.650Z,46.77
2019-02-07T02:32:56.696Z,35.78
2019-02-07T02:35:25.917Z,29.72
2019-02-07T02:37:55.485Z,30.00
2019-02-07T02:40:26.262Z,36.38
2019-02-07T02:42:55.571Z,34.23
2019-02-07T02:45:36.700Z,37.53
2019-02-07T02:47:56.158Z,39.50
2019-02-07T02:50:25.339Z,48.05
2019-02-07T02:52:54.241Z,38.23
2019-02-07T02:55:29.225Z,41.48
2019-02-07T02:57:58.165Z,42.05
2019-02-07T03:00:36.505Z,32.50
2019-02-07T03:03:18.845Z,41.58
2019-02-07T03:05:58.667Z,41.68
2019-02-07T03:08:38.822Z,46.50
2019-02-07T03:11:25.822Z,37.25
2019-02-07T03:14:20.415Z,35.40
2019-02-07T03:17:11.520Z,33.60
2019-02-07T03:19:49.785Z,39.63
2019-02-07T03:22:27.837Z,44.77
2019-02-07T03:25:27.569Z,38.53
2019-02-07T03:28:08.647Z,40.60
2019-02-07T03:30:57.004Z,43.00
2019-02-07T03:33:37.167Z,38.05
2019-02-07T03:36:28.402Z,35.70
2019-02-07T03:39:04.604Z,35.68
2019-02-07T03:41:51.401Z,31.65
2019-02-07T03:44:32.845Z,43.60
2019-02-07T03:47:15.784Z,41.85
2019-02-07T03:50:15.827Z,38.00
2019-02-07T03:52:58.822Z,34.18
2019-02-07T03:55:35.545Z,39.40
2019-02-07T03:58:47.135Z,40.90
2019-02-07T04:01:30.022Z,47.58
2019-02-07T04:04:20.677Z,43.23
2019-02-07T04:07:00.998Z,37.45
2019-02-07T04:10:01.380Z,35.52
2019-02-07T04:12:44.568Z,44.90
2019-02-07T04:15:31.382Z,39.15
2019-02-07T04:18:26.165Z,35.75
2019-02-07T04:21:21.500Z,43.15
2019-02-07T04:24:17.982Z,38.15
2019-02-07T04:27:17.152Z,44.90
2019-02-07T04:29:53.851Z,38.53
2019-02-07T04:32:38.793Z,35.00
2019-02-07T04:35:20.781Z,35.03
2019-02-07T04:38:04.949Z,36.95
2019-02-07T04:40:51.547Z,39.92
2019-02-07T04:43:32.778Z,42.00
2019-02-07T04:46:36.395Z,46.75
2019-02-07T04:49:19.002Z,39.00
2019-02-07T04:51:57.139Z,38.33
2019-02-07T04:54:40.601Z,42.95
2019-02-07T04:57:37.635Z,38.05
2019-02-07T05:00:27.912Z,40.00
2019-02-07T05:03:06.015Z,32.83
2019-02-07T05:06:00.227Z,38.73
2019-02-07T05:08:37.467Z,39.70
2019-02-07T05:11:25.571Z,34.80
2019-02-07T05:14:14.779Z,35.65
2019-02-07T05:16:55.196Z,24.35
2019-02-07T05:19:33.219Z,43.45
2019-02-07T05:22:25.367Z,37.88
2019-02-07T05:25:13.549Z,48.45
2019-02-07T05:27:59.692Z,34.35
2019-02-07T05:30:57.006Z,35.45
2019-02-07T05:33:47.799Z,47.48
2019-02-07T05:36:51.563Z,43.35
2019-02-07T05:39:42.535Z,33.73
2019-02-07T05:42:22.624Z,30.20
2019-02-07T05:45:09.296Z,39.58
2019-02-07T05:47:50.051Z,32.03
2019-02-07T05:50:37.238Z,31.12
2019-02-07T05:53:24.678Z,26.80
2019-02-07T05:56:05.044Z,41.63
2019-02-07T05:58:52.578Z,36.88
2019-02-07T06:01:38.671Z,42.38
2019-02-07T06:04:31.825Z,44.05
2019-02-07T06:07:27.386Z,29.65
2019-02-07T06:10:07.937Z,37.33
2019-02-07T06:12:53.060Z,43.70
2019-02-07T06:15:39.910Z,38.42
2019-02-07T06:18:26.824Z,33.98
2019-02-07T06:21:22.303Z,32.60
2019-02-07T06:24:02.525Z,43.45
2019-02-07T06:26:53.722Z,34.70
2019-02-07T06:29:37.668Z,30.57
2019-02-07T06:32:24.310Z,30.88
2019-02-07T06:35:12.392Z,34.40
2019-02-07T06:38:03.419Z,38.13
2019-02-07T06:40:56.897Z,35.13
2019-02-07T06:43:44.116Z,36.83
2019-02-07T06:46:31.261Z,33.18
2019-02-07T06:49:21.139Z,28.20
2019-02-07T06:51:57.073Z,30.05
2019-02-07T06:54:42.984Z,37.33
2019-02-07T06:57:31.286Z,27.85
2019-02-07T07:00:16.262Z,37.05
2019-02-07T07:03:01.521Z,34.25
2019-02-07T07:05:37.905Z,28.45
2019-02-07T07:08:18.266Z,32.88
2019-02-07T07:11:03.654Z,31.45
2019-02-07T07:13:40.165Z,31.93
2019-02-07T07:16:27.122Z,27.50
2019-02-07T07:19:21.278Z,34.85
2019-02-07T07:22:18.274Z,35.48
2019-02-07T07:25:06.211Z,31.77
2019-02-07T07:27:46.289Z,28.87
2019-02-07T07:30:29.704Z,35.10
2019-02-07T07:33:16.784Z,39.55
2019-02-07T07:36:03.287Z,30.43
2019-02-07T07:38:55.963Z,31.52
2019-02-07T07:41:44.003Z,30.57
2019-02-07T07:44:30.781Z,34.90
2019-02-07T07:47:36.265Z,26.93
2019-02-07T07:50:26.350Z,28.27
2019-02-07T07:53:19.321Z,30.72
2019-02-07T07:55:59.966Z,29.37
2019-02-07T07:58:48.128Z,28.77
2019-02-07T08:01:36.411Z,22.62
2019-02-07T08:04:15.316Z,25.55
2019-02-07T08:07:02.183Z,27.62
2019-02-07T08:09:48.594Z,27.22
2019-02-07T08:12:37.747Z,35.58
2019-02-07T08:15:20.327Z,36.20
2019-02-07T08:18:11.391Z,32.45
2019-02-07T08:21:17.592Z,29.27
2019-02-07T08:24:04.499Z,27.00
2019-02-07T08:27:05.403Z,34.08
2019-02-07T08:29:51.705Z,30.05
2019-02-07T08:32:38.472Z,30.95
2019-02-07T08:35:26.626Z,32.30
2019-02-07T08:38:13.617Z,31.68
2019-02-07T08:41:03.500Z,32.65
2019-02-07T08:43:41.224Z,29.40
2019-02-07T08:46:34.988Z,27.67
2019-02-07T08:49:33.761Z,30.35
2019-02-07T08:52:25.891Z,27.95
2019-02-07T08:55:11.797Z,27.17
2019-02-07T08:57:58.680Z,23.35
2019-02-07T09:00:34.891Z,28.42
2019-02-07T09:03:14.044Z,30.30
2019-02-07T09:06:07.723Z,37.63
2019-02-07T09:08:57.455Z,32.75
2019-02-07T09:12:03.730Z,30.08
2019-02-07T09:14:50.887Z,26.82
2019-02-07T09:17:35.887Z,30.57
2019-02-07T09:20:14.279Z,29.67
2019-02-07T09:23:02.535Z,30.12
2019-02-07T09:25:50.306Z,39.88
2019-02-07T09:28:29.821Z,38.50
2019-02-07T09:31:09.258Z,46.77
2019-02-07T09:33:48.435Z,41.00
2019-02-07T09:36:46.928Z,30.37
2019-02-07T09:39:35.226Z,40.25
2019-02-07T09:42:25.128Z,31.48
2019-02-07T09:45:12.346Z,38.80
2019-02-07T09:48:06.800Z,36.48
2019-02-07T09:50:48.188Z,36.77
2019-02-07T09:53:35.390Z,53.10
2019-02-07T09:56:22.713Z,33.35
2019-02-07T09:59:07.111Z,33.85
2019-02-07T10:01:55.681Z,27.77
2019-02-07T10:04:42.515Z,38.48
2019-02-07T10:07:31.448Z,41.58
2019-02-07T10:10:20.833Z,29.92
2019-02-07T10:13:07.738Z,34.35
2019-02-07T10:15:49.418Z,35.70
2019-02-07T10:18:40.827Z,32.38
2019-02-07T10:21:17.403Z,34.30
2019-02-07T10:24:02.456Z,35.23
2019-02-07T10:26:41.200Z,42.45
2019-02-07T10:29:28.209Z,33.78
2019-02-07T10:32:06.654Z,39.83
2019-02-07T10:34:53.548Z,26.17
2019-02-07T10:37:36.376Z,30.68
2019-02-07T10:40:26.316Z,25.92
2019-02-07T10:43:14.367Z,36.48
2019-02-07T10:46:00.955Z,30.30
2019-02-07T10:48:45.218Z,28.47
2019-02-07T10:51:45.327Z,30.62
2019-02-07T10:54:36.404Z,27.22
2019-02-07T10:57:23.781Z,27.30
2019-02-07T11:00:30.816Z,33.88
2019-02-07T11:03:17.347Z,31.82
2019-02-07T11:06:05.286Z,36.68
2019-02-07T11:08:52.157Z,32.00
2019-02-07T11:11:27.475Z,30.00
2019-02-07T11:14:24.841Z,31.55
2019-02-07T11:17:16.109Z,29.92
2019-02-07T11:20:02.899Z,32.63
2019-02-07T11:22:38.400Z,35.52
2019-02-07T11:25:27.103Z,25.77
2019-02-07T11:28:13.948Z,34.30
2019-02-07T11:31:01.971Z,31.10
2019-02-07T11:33:46.696Z,29.52
2019-02-07T11:36:27.867Z,26.87
2019-02-07T11:39:15.347Z,32.60
2019-02-07T11:42:12.751Z,34.63
2019-02-07T11:45:00.450Z,29.92
2019-02-07T11:47:48.797Z,28.80
2019-02-07T11:50:39.427Z,29.30
2019-02-07T11:53:33.335Z,29.67
2019-02-07T11:56:15.546Z,34.00
2019-02-07T11:58:55.277Z,27.27
2019-02-07T12:01:35.708Z,35.60
2019-02-07T12:04:24.848Z,30.45
2019-02-07T12:07:21.633Z,33.78
2019-02-07T12:10:17.493Z,30.65
2019-02-07T12:13:02.445Z,34.65
2019-02-07T12:15:58.156Z,36.58
2019-02-07T12:18:45.384Z,32.40
2019-02-07T12:21:39.142Z,31.40
2019-02-07T12:24:22.013Z,29.75
2019-02-07T12:27:22.379Z,29.67
2019-02-07T12:30:13.549Z,36.05
2019-02-07T12:32:49.245Z,33.02
2019-02-07T12:35:39.771Z,35.30
2019-02-07T12:38:28.477Z,40.95
2019-02-07T12:41:25.772Z,35.25
2019-02-07T12:44:19.594Z,34.55
2019-02-07T12:46:59.391Z,33.38
2019-02-07T12:49:48.760Z,30.25
2019-02-07T12:52:33.802Z,41.98
2019-02-07T12:55:08.794Z,38.35
2019-02-07T12:57:55.734Z,36.53
2019-02-07T13:00:38.058Z,47.83
2019-02-07T13:03:22.170Z,36.83
2019-02-07T13:06:16.424Z,32.73
2019-02-07T13:09:13.839Z,36.20
2019-02-07T13:12:03.698Z,38.90
2019-02-07T13:14:50.464Z,38.42
2019-02-07T13:17:34.302Z,29.60
2019-02-07T13:20:22.557Z,38.20
2019-02-07T13:23:11.912Z,44.35
2019-02-07T13:25:58.678Z,34.95
2019-02-07T13:28:49.985Z,37.10
2019-02-07T13:31:49.942Z,36.13
2019-02-07T13:34:35.378Z,38.20
2019-02-07T13:37:14.034Z,40.55
2019-02-07T13:40:05.720Z,34.75
2019-02-07T13:42:56.751Z,35.50
2019-02-07T13:45:38.569Z,38.10
2019-02-07T13:48:17.624Z,41.25
2019-02-07T13:51:04.992Z,41.30
2019-02-07T13:54:05.196Z,37.33
2019-02-07T13:56:53.705Z,50.65
2019-02-07T13:59:33.333Z,37.93
2019-02-07T14:02:36.664Z,38.28
2019-02-07T14:05:29.000Z,36.28
2019-02-07T14:08:38.342Z,40.20
2019-02-07T14:11:10.480Z,34.10
2019-02-07T14:13:58.559Z,42.30
2019-02-07T14:16:59.122Z,37.15
2019-02-07T14:19:50.582Z,35.50
2019-02-07T14:22:44.680Z,47.10
2019-02-07T14:25:34.848Z,48.48
2019-02-07T14:28:21.764Z,43.63
2019-02-07T14:31:16.034Z,36.63
2019-02-07T14:34:00.666Z,63.02
2019-02-07T14:36:47.603Z,45.25
2019-02-07T14:39:41.091Z,35.17
2019-02-07T14:42:20.275Z,34.10
2019-02-07T14:45:20.562Z,30.97
2019-02-07T14:47:49.458Z,42.70
2019-02-07T14:50:19.822Z,35.83
2019-02-07T14:52:48.764Z,38.73
2019-02-07T14:55:17.610Z,44.50
2019-02-07T14:57:46.507Z,37.25
2019-02-07T15:00:19.215Z,35.17
2019-02-07T15:02:48.502Z,30.48
2019-02-07T15:05:17.876Z,33.55
2019-02-07T15:07:46.924Z,30.85
2019-02-07T15:10:17.197Z,34.27
2019-02-07T15:12:47.346Z,37.60
2019-02-07T15:15:17.620Z,34.13
2019-02-07T15:17:46.529Z,41.53
2019-02-07T15:20:25.878Z,41.25
2019-02-07T15:22:46.900Z,38.58
2019-02-07T15:25:16.474Z,43.45
2019-02-07T15:27:46.511Z,40.85
2019-02-07T15:30:17.095Z,38.15
2019-02-07T15:32:46.054Z,38.28
2019-02-07T15:35:21.326Z,30.45
2019-02-07T15:37:50.613Z,39.75
2019-02-07T15:40:22.179Z,31.87
2019-02-07T15:42:51.532Z,34.55
2019-02-07T15:45:20.681Z,26.90
2019-02-07T15:47:49.701Z,36.90
2019-02-07T15:50:23.922Z,36.53
2019-02-07T15:52:54.894Z,42.70
2019-02-07T15:55:24.040Z,37.55
2019-02-07T15:57:53.450Z,33.20
2019-02-07T16:00:45.458Z,36.33
2019-02-07T16:03:20.751Z,34.85
2019-02-07T16:05:49.657Z,41.50
2019-02-07T16:08:18.718Z,39.70
2019-02-07T16:10:47.751Z,44.38
2019-02-07T16:13:17.511Z,35.75
2019-02-07T16:15:46.881Z,39.75
2019-02-07T16:18:15.866Z,41.63
2019-02-07T16:20:48.925Z,33.23
2019-02-07T16:23:15.878Z,32.35
2019-02-07T16:25:45.308Z,39.88
2019-02-07T16:28:14.484Z,60.80
2019-02-07T16:30:43.490Z,46.85
2019-02-07T16:33:12.993Z,45.67
2019-02-07T16:35:42.292Z,38.08
2019-02-07T16:38:11.147Z,56.55
2019-02-07T16:40:40.389Z,52.05
2019-02-07T16:43:09.332Z,44.38
2019-02-07T16:45:38.304Z,33.42
2019-02-07T16:48:07.254Z,46.42
2019-02-07T16:50:36.436Z,47.10
2019-02-07T16:53:05.589Z,25.15
2019-02-07T16:55:34.961Z,42.20
2019-02-07T16:58:04.129Z,39.53
2019-02-07T17:00:34.121Z,40.58
2019-02-07T17:03:03.296Z,39.38
2019-02-07T17:05:32.130Z,44.35
2019-02-07T17:08:01.306Z,45.40
2019-02-07T17:10:31.666Z,35.80
2019-02-07T17:13:00.786Z,44.33
2019-02-07T17:15:30.160Z,35.15
2019-02-07T17:17:59.130Z,40.38
2019-02-07T17:20:29.610Z,44.55
2019-02-07T17:22:59.085Z,40.15
2019-02-07T17:25:28.813Z,37.55
2019-02-07T17:27:57.621Z,38.73
2019-02-07T17:30:26.570Z,41.68
2019-02-07T17:32:55.987Z,48.83
2019-02-07T17:35:25.450Z,37.45
2019-02-07T17:37:54.434Z,44.45
2019-02-07T17:40:23.494Z,39.20
2019-02-07T17:42:52.810Z,45.67
2019-02-07T17:45:23.704Z,42.45
2019-02-07T17:47:53.155Z,34.70
2019-02-07T17:50:23.943Z,47.05
2019-02-07T17:52:52.912Z,44.55
2019-02-07T17:55:22.704Z,35.52
2019-02-07T17:57:53.575Z,42.17
2019-02-07T18:00:41.515Z,45.08
2019-02-07T18:03:10.530Z,34.65
2019-02-07T18:05:39.635Z,45.80
2019-02-07T18:08:09.579Z,41.37
2019-02-07T18:10:38.592Z,32.25
2019-02-07T18:13:07.951Z,41.53
2019-02-07T18:15:37.551Z,42.33
2019-02-07T18:18:06.919Z,52.25
2019-02-07T18:20:48.237Z,30.40
2019-02-07T18:23:17.413Z,43.20
2019-02-07T18:25:46.787Z,52.85
2019-02-07T18:28:15.668Z,44.42
2019-02-07T18:30:44.980Z,52.75
2019-02-07T18:33:13.915Z,48.08
2019-02-07T18:35:42.946Z,42.25
2019-02-07T18:38:12.234Z,50.08
2019-02-07T18:40:43.290Z,51.08
2019-02-07T18:43:12.295Z,62.17
2019-02-07T18:45:41.204Z,57.73
2019-02-07T18:48:10.082Z,42.70
2019-02-07T18:50:39.231Z,48.80
2019-02-07T18:53:08.294Z,55.60
2019-02-07T18:55:37.290Z,40.08
2019-02-07T18:58:06.414Z,38.30
2019-02-07T19:00:35.956Z,56.15
2019-02-07T19:03:06.430Z,48.00
2019-02-07T19:05:35.981Z,43.05
2019-02-07T19:08:05.782Z,44.70
2019-02-07T19:10:34.787Z,37.60
2019-02-07T19:13:04.843Z,44.20
2019-02-07T19:15:42.632Z,40.70
2019-02-07T19:18:11.741Z,46.83
2019-02-07T19:20:42.212Z,38.63
2019-02-07T19:23:11.273Z,41.10
2019-02-07T19:25:40.735Z,40.12
2019-02-07T19:28:10.042Z,44.08
2019-02-07T19:30:39.960Z,51.20
2019-02-07T19:33:08.962Z,51.92
2019-02-07T19:35:38.002Z,43.87
2019-02-07T19:38:07.016Z,42.50
2019-02-07T19:40:36.420Z,40.52
2019-02-07T19:43:05.837Z,46.68
2019-02-07T19:45:35.142Z,45.10
2019-02-07T19:48:05.176Z,38.35
2019-02-07T19:50:34.646Z,45.23
2019-02-07T19:53:03.827Z,42.00
2019-02-07T19:55:32.793Z,48.45
2019-02-07T19:58:02.108Z,32.48
2019-02-07T20:00:31.678Z,45.55
2019-02-07T20:03:01.133Z,38.23
2019-02-07T20:05:30.333Z,53.15
2019-02-07T20:07:59.535Z,39.98
2019-02-07T20:10:29.008Z,42.73
2019-02-07T20:12:58.134Z,47.73
2019-02-07T20:15:32.546Z,42.25
2019-02-07T20:18:01.742Z,47.43
2019-02-07T20:20:30.815Z,44.10
2019-02-07T20:22:59.731Z,44.27
2019-02-07T20:25:29.120Z,46.13
2019-02-07T20:27:58.527Z,46.60
2019-02-07T20:30:29.833Z,46.92
2019-02-07T20:32:58.901Z,48.02
2019-02-07T20:35:28.120Z,58.52
2019-02-07T20:37:57.239Z,56.18
2019-02-07T20:40:27.172Z,49.85
2019-02-07T20:42:56.503Z,40.63
2019-02-07T20:45:26.030Z,48.38
2019-02-07T20:47:55.215Z,42.98
2019-02-07T20:50:25.514Z,47.62
2019-02-07T20:52:54.931Z,49.88
2019-02-07T20:55:24.954Z,57.45
2019-02-07T20:57:54.521Z,56.90
2019-02-07T21:00:34.844Z,37.13
2019-02-07T21:03:04.627Z,45.55
2019-02-07T21:05:33.644Z,49.60
2019-02-07T21:08:02.789Z,42.10
2019-02-07T21:10:32.656Z,48.92
2019-02-07T21:15:28.878Z,47.90
2019-02-07T21:17:58.156Z,53.38
2019-02-07T21:20:28.251Z,37.45
2019-02-07T21:22:58.400Z,47.85
2019-02-07T21:25:48.262Z,42.43
2019-02-07T21:28:17.908Z,64.53
2019-02-07T21:30:46.879Z,48.13
2019-02-07T21:33:16.061Z,50.17
2019-02-07T21:35:45.025Z,49.38
2019-02-07T21:38:14.100Z,48.95
2019-02-07T21:40:44.175Z,62.83
2019-02-07T21:43:13.544Z,50.05
2019-02-07T21:45:42.567Z,61.75
2019-02-07T21:48:11.767Z,56.40
2019-02-07T21:50:40.563Z,50.60
2019-02-07T21:53:09.581Z,50.40
2019-02-07T21:55:38.597Z,51.08
2019-02-07T21:58:08.303Z,59.27
2019-02-07T22:00:39.128Z,62.13
2019-02-07T22:03:09.765Z,60.55
2019-02-07T22:05:38.652Z,53.00
2019-02-07T22:08:08.363Z,60.48
2019-02-07T22:10:37.675Z,58.92
2019-02-07T22:13:08.141Z,54.25
2019-02-07T22:15:37.404Z,51.42
2019-02-07T22:18:07.858Z,63.65
2019-02-07T22:20:36.786Z,57.90
2019-02-07T22:23:06.435Z,60.45
2019-02-07T22:25:35.410Z,45.80
2019-02-07T22:28:05.289Z,55.30
2019-02-07T22:30:35.408Z,60.48
2019-02-07T22:33:05.762Z,56.35
2019-02-07T22:35:35.306Z,54.63
2019-02-07T22:38:05.087Z,63.02
2019-02-07T22:40:33.986Z,54.03
2019-02-07T22:43:03.044Z,62.67
2019-02-07T22:45:32.197Z,47.17
2019-02-07T22:48:01.210Z,52.35
2019-02-07T22:50:31.518Z,53.33
2019-02-07T22:53:01.267Z,54.88
2019-02-07T22:55:30.482Z,62.62
2019-02-07T22:57:59.520Z,60.58
2019-02-07T23:01:12.437Z,43.60
2019-02-07T23:03:46.546Z,58.17
2019-02-07T23:06:15.633Z,62.48
2019-02-07T23:08:44.670Z,57.83
2019-02-07T23:11:13.564Z,58.10
2019-02-07T23:13:42.635Z,52.88
2019-02-07T23:16:11.950Z,49.77
2019-02-07T23:18:42.533Z,53.20
2019-02-07T23:21:11.523Z,58.70
2019-02-07T23:23:40.604Z,51.10
2019-02-07T23:26:09.565Z,42.17
2019-02-07T23:28:38.573Z,53.80
2019-02-07T23:31:08.966Z,62.85
2019-02-07T23:33:38.451Z,54.10
2019-02-07T23:36:09.180Z,54.30
2019-02-07T23:38:38.364Z,53.60
2019-02-07T23:41:08.820Z,52.05
2019-02-07T23:43:45.936Z,49.67
2019-02-07T23:46:11.255Z,63.45
2019-02-07T23:48:40.467Z,59.63
2019-02-07T23:51:09.975Z,55.52
2019-02-07T23:53:39.199Z,50.20
2019-02-07T23:56:09.012Z,68.25
2019-02-07T23:58:37.854Z,58.80
